createdAt,value
2023-01-02T07:52:48.659Z,18.53
2023-01-02T08:02:50.301Z,18.55
2023-01-02T08:12:51.781Z,18.58
2023-01-02T08:22:53.047Z,18.59
2023-01-02T08:32:54.621Z,18.58
2023-01-02T08:42:56.070Z,18.55
2023-01-02T08:52:57.597Z,18.57
2023-01-02T09:02:59.088Z,18.49
2023-01-02T09:13:00.416Z,18.50
2023-01-02T09:23:01.849Z,18.47
2023-01-02T09:33:03.272Z,18.39
2023-01-02T09:43:07.758Z,18.38
2023-01-02T10:14:26.328Z,18.45
2023-01-02T10:24:28.079Z,18.44
2023-01-02T10:34:29.322Z,18.47
2023-01-02T10:44:30.716Z,18.51
2023-01-02T10:54:32.152Z,18.47
2023-01-02T11:04:33.453Z,18.49
2023-01-02T11:14:34.752Z,18.51
2023-01-02T11:24:36.453Z,18.46
2023-01-02T11:34:37.993Z,18.51
2023-01-02T11:44:39.332Z,18.48
2023-01-02T11:54:40.742Z,18.38
2023-01-02T12:04:42.145Z,18.43
2023-01-02T12:14:44.540Z,18.44
2023-01-02T12:24:48.320Z,18.48
2023-01-02T12:34:49.595Z,18.45
2023-01-02T12:44:51.068Z,18.48
2023-01-02T13:15:36.465Z,18.38
2023-01-02T13:25:39.094Z,18.40
2023-01-02T13:35:41.649Z,18.41
2023-01-02T13:45:45.546Z,18.40
2023-01-02T13:55:47.148Z,18.36
2023-01-02T14:05:48.578Z,18.35
2023-01-02T14:15:49.855Z,18.31
2023-01-02T14:36:24.548Z,18.32
2023-01-02T14:46:27.874Z,18.39
2023-01-02T14:56:29.467Z,18.34
2023-01-02T15:27:23.065Z,18.25
2023-01-02T15:37:24.389Z,18.28
2023-01-02T15:47:31.434Z,18.20
2023-01-02T15:57:34.840Z,18.21
2023-01-02T16:07:36.183Z,18.26
